sensor_id;sensor_type;location;lat;lon;timestamp;temperature;humidity
9544;DHT22;30418;51.45933468;7.33152330;2022-08-05T00:01:31;27.80;50.70
9544;DHT22;30418;51.45933468;7.33152330;2022-08-05T00:04:15;27.80;50.80
9544;DHT22;30418;51.45933468;7.33152330;2022-08-05T00:06:44;27.80;51.20
9544;DHT22;30418;51.45933468;7.33152330;2022-08-05T00:09:17;27.80;51.00
9544;DHT22;30418;51.45933468;7.33152330;2022-08-05T00:11:48;27.80;50.90
9544;DHT22;30418;51.45933468;7.33152330;2022-08-05T00:14:25;27.80;51.20
9544;DHT22;30418;51.45933468;7.33152330;2022-08-05T00:16:57;27.80;51.20
9544;DHT22;30418;51.45933468;7.33152330;2022-08-05T00:19:28;27.80;51.20
9544;DHT22;30418;51.45933468;7.33152330;2022-08-05T00:22:22;27.80;51.30
9544;DHT22;30418;51.45933468;7.33152330;2022-08-05T00:24:51;27.80;51.70
9544;DHT22;30418;51.45933468;7.33152330;2022-08-05T00:27:21;27.80;51.40
9544;DHT22;30418;51.45933468;7.33152330;2022-08-05T00:30:02;27.80;51.50
9544;DHT22;30418;51.45933468;7.33152330;2022-08-05T00:32:37;27.80;51.60
9544;DHT22;30418;51.45933468;7.33152330;2022-08-05T00:35:07;27.80;51.50
9544;DHT22;30418;51.45933468;7.33152330;2022-08-05T00:37:37;27.80;51.60
9544;DHT22;30418;51.45933468;7.33152330;2022-08-05T00:40:21;27.80;51.70
9544;DHT22;30418;51.45933468;7.33152330;2022-08-05T00:42:56;27.80;51.60
9544;DHT22;30418;51.45933468;7.33152330;2022-08-05T00:45:25;27.80;51.60
9544;DHT22;30418;51.45933468;7.33152330;2022-08-05T00:48:10;27.80;51.40
9544;DHT22;30418;51.45933468;7.33152330;2022-08-05T00:50:40;27.70;51.60
9544;DHT22;30418;51.45933468;7.33152330;2022-08-05T00:53:15;27.70;51.60
9544;DHT22;30418;51.45933468;7.33152330;2022-08-05T00:56:05;27.70;51.80
9544;DHT22;30418;51.45933468;7.33152330;2022-08-05T00:58:35;27.70;51.70
9544;DHT22;30418;51.45933468;7.33152330;2022-08-05T01:01:09;27.70;51.80
9544;DHT22;30418;51.45933468;7.33152330;2022-08-05T01:03:38;27.70;51.90
9544;DHT22;30418;51.45933468;7.33152330;2022-08-05T01:06:08;27.60;51.70
9544;DHT22;30418;51.45933468;7.33152330;2022-08-05T01:08:43;27.60;51.80
9544;DHT22;30418;51.45933468;7.33152330;2022-08-05T01:11:18;27.60;51.90
9544;DHT22;30418;51.45933468;7.33152330;2022-08-05T01:14:05;27.50;51.80
9544;DHT22;30418;51.45933468;7.33152330;2022-08-05T01:16:48;27.50;52.00
9544;DHT22;30418;51.45933468;7.33152330;2022-08-05T01:19:37;27.50;52.20
9544;DHT22;30418;51.45933468;7.33152330;2022-08-05T01:22:39;27.50;52.30
9544;DHT22;30418;51.45933468;7.33152330;2022-08-05T01:25:45;27.40;52.10
9544;DHT22;30418;51.45933468;7.33152330;2022-08-05T01:28:26;27.40;52.00
9544;DHT22;30418;51.45933468;7.33152330;2022-08-05T01:31:01;27.30;51.90
9544;DHT22;30418;51.45933468;7.33152330;2022-08-05T01:33:37;27.30;51.80
9544;DHT22;30418;51.45933468;7.33152330;2022-08-05T01:36:17;27.30;51.80
9544;DHT22;30418;51.45933468;7.33152330;2022-08-05T01:38:55;27.20;52.10
9544;DHT22;30418;51.45933468;7.33152330;2022-08-05T01:41:31;27.20;52.10
9544;DHT22;30418;51.45933468;7.33152330;2022-08-05T01:44:05;27.20;52.40
9544;DHT22;30418;51.45933468;7.33152330;2022-08-05T01:46:36;27.10;52.40
9544;DHT22;30418;51.45933468;7.33152330;2022-08-05T01:49:17;27.10;52.30
9544;DHT22;30418;51.45933468;7.33152330;2022-08-05T01:51:54;27.10;52.40
9544;DHT22;30418;51.45933468;7.33152330;2022-08-05T01:54:28;27.00;52.50
9544;DHT22;30418;51.45933468;7.33152330;2022-08-05T01:57:14;27.00;52.80
9544;DHT22;30418;51.45933468;7.33152330;2022-08-05T02:00:09;26.90;52.80
9544;DHT22;30418;51.45933468;7.33152330;2022-08-05T02:02:42;26.90;52.90
9544;DHT22;30418;51.45933468;7.33152330;2022-08-05T02:05:24;26.90;53.50
9544;DHT22;30418;51.45933468;7.33152330;2022-08-05T02:07:55;26.90;53.00
9544;DHT22;30418;51.45933468;7.33152330;2022-08-05T02:10:32;26.80;52.90
9544;DHT22;30418;51.45933468;7.33152330;2022-08-05T02:13:08;26.80;52.90
9544;DHT22;30418;51.45933468;7.33152330;2022-08-05T02:15:46;26.80;52.90
9544;DHT22;30418;51.45933468;7.33152330;2022-08-05T02:18:22;26.80;52.70
9544;DHT22;30418;51.45933468;7.33152330;2022-08-05T02:21:02;26.80;52.80
9544;DHT22;30418;51.45933468;7.33152330;2022-08-05T02:23:43;26.70;52.80
9544;DHT22;30418;51.45933468;7.33152330;2022-08-05T02:26:19;26.70;52.80
9544;DHT22;30418;51.45933468;7.33152330;2022-08-05T02:28:53;26.70;53.00
9544;DHT22;30418;51.45933468;7.33152330;2022-08-05T02:31:29;26.60;53.00
9544;DHT22;30418;51.45933468;7.33152330;2022-08-05T02:34:04;26.60;53.30
9544;DHT22;30418;51.45933468;7.33152330;2022-08-05T02:36:40;26.60;53.10
9544;DHT22;30418;51.45933468;7.33152330;2022-08-05T02:39:14;26.50;53.50
9544;DHT22;30418;51.45933468;7.33152330;2022-08-05T02:41:48;26.50;53.20
9544;DHT22;30418;51.45933468;7.33152330;2022-08-05T02:44:28;26.50;53.30
9544;DHT22;30418;51.45933468;7.33152330;2022-08-05T02:47:00;26.40;53.30
9544;DHT22;30418;51.45933468;7.33152330;2022-08-05T02:49:34;26.30;53.20
9544;DHT22;30418;51.45933468;7.33152330;2022-08-05T02:52:09;26.30;53.20
9544;DHT22;30418;51.45933468;7.33152330;2022-08-05T02:54:56;26.20;53.30
9544;DHT22;30418;51.45933468;7.33152330;2022-08-05T02:57:31;26.20;53.50
9544;DHT22;30418;51.45933468;7.33152330;2022-08-05T03:00:20;26.20;53.50
9544;DHT22;30418;51.45933468;7.33152330;2022-08-05T03:02:56;26.10;53.40
9544;DHT22;30418;51.45933468;7.33152330;2022-08-05T03:05:26;26.10;53.60
9544;DHT22;30418;51.45933468;7.33152330;2022-08-05T03:08:16;26.10;53.50
9544;DHT22;30418;51.45933468;7.33152330;2022-08-05T03:10:55;26.00;53.50
9544;DHT22;30418;51.45933468;7.33152330;2022-08-05T03:13:44;25.90;53.50
9544;DHT22;30418;51.45933468;7.33152330;2022-08-05T03:16:28;25.90;53.60
9544;DHT22;30418;51.45933468;7.33152330;2022-08-05T03:18:59;25.90;53.80
9544;DHT22;30418;51.45933468;7.33152330;2022-08-05T03:21:42;25.80;53.80
9544;DHT22;30418;51.45933468;7.33152330;2022-08-05T03:24:15;25.80;54.00
9544;DHT22;30418;51.45933468;7.33152330;2022-08-05T03:26:57;25.80;54.30
9544;DHT22;30418;51.45933468;7.33152330;2022-08-05T03:29:25;25.80;54.40
9544;DHT22;30418;51.45933468;7.33152330;2022-08-05T03:32:15;25.80;54.40
9544;DHT22;30418;51.45933468;7.33152330;2022-08-05T03:34:47;25.80;54.60
9544;DHT22;30418;51.45933468;7.33152330;2022-08-05T03:37:18;25.90;54.80
9544;DHT22;30418;51.45933468;7.33152330;2022-08-05T03:39:54;25.90;54.70
9544;DHT22;30418;51.45933468;7.33152330;2022-08-05T03:42:26;26.00;55.10
9544;DHT22;30418;51.45933468;7.33152330;2022-08-05T03:44:58;26.00;54.80
9544;DHT22;30418;51.45933468;7.33152330;2022-08-05T03:47:47;26.00;54.80
9544;DHT22;30418;51.45933468;7.33152330;2022-08-05T03:50:17;26.00;54.70
9544;DHT22;30418;51.45933468;7.33152330;2022-08-05T03:52:51;26.00;54.70
9544;DHT22;30418;51.45933468;7.33152330;2022-08-05T03:55:52;26.00;54.80
9544;DHT22;30418;51.45933468;7.33152330;2022-08-05T03:58:45;26.00;54.70
9544;DHT22;30418;51.45933468;7.33152330;2022-08-05T04:01:18;25.90;54.70
9544;DHT22;30418;51.45933468;7.33152330;2022-08-05T04:03:49;25.80;54.60
9544;DHT22;30418;51.45933468;7.33152330;2022-08-05T04:06:38;25.80;55.40
9544;DHT22;30418;51.45933468;7.33152330;2022-08-05T04:09:14;25.70;55.20
9544;DHT22;30418;51.45933468;7.33152330;2022-08-05T04:11:52;25.80;55.30
9544;DHT22;30418;51.45933468;7.33152330;2022-08-05T04:14:24;25.70;55.40
9544;DHT22;30418;51.45933468;7.33152330;2022-08-05T04:16:58;25.80;55.50
9544;DHT22;30418;51.45933468;7.33152330;2022-08-05T04:19:29;25.70;55.50
9544;DHT22;30418;51.45933468;7.33152330;2022-08-05T04:21:59;25.70;55.50
9544;DHT22;30418;51.45933468;7.33152330;2022-08-05T04:24:38;25.70;55.60
9544;DHT22;30418;51.45933468;7.33152330;2022-08-05T04:27:10;25.80;55.70
9544;DHT22;30418;51.45933468;7.33152330;2022-08-05T04:29:41;25.70;55.70
9544;DHT22;30418;51.45933468;7.33152330;2022-08-05T04:32:11;25.70;55.80
9544;DHT22;30418;51.45933468;7.33152330;2022-08-05T04:34:45;25.70;55.90
9544;DHT22;30418;51.45933468;7.33152330;2022-08-05T04:37:15;25.80;56.00
9544;DHT22;30418;51.45933468;7.33152330;2022-08-05T04:39:44;25.70;56.10
9544;DHT22;30418;51.45933468;7.33152330;2022-08-05T04:42:18;25.80;56.10
9544;DHT22;30418;51.45933468;7.33152330;2022-08-05T04:44:51;25.80;56.10
9544;DHT22;30418;51.45933468;7.33152330;2022-08-05T04:47:20;25.70;56.10
9544;DHT22;30418;51.45933468;7.33152330;2022-08-05T04:49:49;25.70;56.10
9544;DHT22;30418;51.45933468;7.33152330;2022-08-05T04:52:30;25.60;56.30
9544;DHT22;30418;51.45933468;7.33152330;2022-08-05T04:55:00;25.60;56.40
9544;DHT22;30418;51.45933468;7.33152330;2022-08-05T04:57:43;25.60;56.30
9544;DHT22;30418;51.45933468;7.33152330;2022-08-05T05:00:20;25.60;56.60
9544;DHT22;30418;51.45933468;7.33152330;2022-08-05T05:02:50;25.50;56.40
9544;DHT22;30418;51.45933468;7.33152330;2022-08-05T05:05:19;25.50;56.40
9544;DHT22;30418;51.45933468;7.33152330;2022-08-05T05:07:59;25.50;56.60
9544;DHT22;30418;51.45933468;7.33152330;2022-08-05T05:10:31;25.50;56.80
9544;DHT22;30418;51.45933468;7.33152330;2022-08-05T05:13:01;25.40;56.50
9544;DHT22;30418;51.45933468;7.33152330;2022-08-05T05:15:31;25.40;56.50
9544;DHT22;30418;51.45933468;7.33152330;2022-08-05T05:18:21;25.40;56.50
9544;DHT22;30418;51.45933468;7.33152330;2022-08-05T05:21:00;25.30;56.60
9544;DHT22;30418;51.45933468;7.33152330;2022-08-05T05:23:31;25.20;56.50
9544;DHT22;30418;51.45933468;7.33152330;2022-08-05T05:26:20;25.20;56.70
9544;DHT22;30418;51.45933468;7.33152330;2022-08-05T05:28:59;25.20;56.70
9544;DHT22;30418;51.45933468;7.33152330;2022-08-05T05:31:36;25.10;56.80
9544;DHT22;30418;51.45933468;7.33152330;2022-08-05T05:34:03;25.10;57.00
9544;DHT22;30418;51.45933468;7.33152330;2022-08-05T05:36:32;25.00;57.90
9544;DHT22;30418;51.45933468;7.33152330;2022-08-05T05:39:04;25.10;57.20
9544;DHT22;30418;51.45933468;7.33152330;2022-08-05T05:41:37;25.00;57.30
9544;DHT22;30418;51.45933468;7.33152330;2022-08-05T05:44:07;25.00;57.30
9544;DHT22;30418;51.45933468;7.33152330;2022-08-05T05:46:57;25.00;57.40
9544;DHT22;30418;51.45933468;7.33152330;2022-08-05T05:49:39;25.00;57.40
9544;DHT22;30418;51.45933468;7.33152330;2022-08-05T05:52:08;25.00;57.40
9544;DHT22;30418;51.45933468;7.33152330;2022-08-05T05:54:58;25.00;57.40
9544;DHT22;30418;51.45933468;7.33152330;2022-08-05T05:57:33;25.00;57.80
9544;DHT22;30418;51.45933468;7.33152330;2022-08-05T06:00:20;25.00;57.40
9544;DHT22;30418;51.45933468;7.33152330;2022-08-05T06:02:57;24.90;57.60
9544;DHT22;30418;51.45933468;7.33152330;2022-08-05T06:05:27;25.00;57.80
9544;DHT22;30418;51.45933468;7.33152330;2022-08-05T06:07:58;25.00;58.00
9544;DHT22;30418;51.45933468;7.33152330;2022-08-05T06:10:31;25.00;58.00
9544;DHT22;30418;51.45933468;7.33152330;2022-08-05T06:13:18;25.00;58.10
9544;DHT22;30418;51.45933468;7.33152330;2022-08-05T06:15:49;25.00;58.00
9544;DHT22;30418;51.45933468;7.33152330;2022-08-05T06:18:38;25.00;58.10
9544;DHT22;30418;51.45933468;7.33152330;2022-08-05T06:21:06;25.00;58.10
9544;DHT22;30418;51.45933468;7.33152330;2022-08-05T06:23:44;25.00;58.00
9544;DHT22;30418;51.45933468;7.33152330;2022-08-05T06:26:17;25.00;58.20
9544;DHT22;30418;51.45933468;7.33152330;2022-08-05T06:28:47;25.00;58.30
9544;DHT22;30418;51.45933468;7.33152330;2022-08-05T06:31:16;25.00;58.20
9544;DHT22;30418;51.45933468;7.33152330;2022-08-05T06:33:48;25.00;58.20
9544;DHT22;30418;51.45933468;7.33152330;2022-08-05T06:36:35;25.00;58.40
9544;DHT22;30418;51.45933468;7.33152330;2022-08-05T06:39:24;25.00;58.30
9544;DHT22;30418;51.45933468;7.33152330;2022-08-05T06:41:56;25.00;58.30
9544;DHT22;30418;51.45933468;7.33152330;2022-08-05T06:44:30;25.00;58.50
9544;DHT22;30418;51.45933468;7.33152330;2022-08-05T06:46:59;25.00;58.40
9544;DHT22;30418;51.45933468;7.33152330;2022-08-05T06:49:28;24.90;58.40
9544;DHT22;30418;51.45933468;7.33152330;2022-08-05T06:52:17;24.90;58.60
9544;DHT22;30418;51.45933468;7.33152330;2022-08-05T06:55:04;24.90;58.60
9544;DHT22;30418;51.45933468;7.33152330;2022-08-05T06:57:35;24.90;58.60
9544;DHT22;30418;51.45933468;7.33152330;2022-08-05T07:00:23;24.80;58.60
9544;DHT22;30418;51.45933468;7.33152330;2022-08-05T07:02:55;24.80;58.50
9544;DHT22;30418;51.45933468;7.33152330;2022-08-05T07:05:25;24.80;58.50
9544;DHT22;30418;51.45933468;7.33152330;2022-08-05T07:08:04;24.70;58.50
9544;DHT22;30418;51.45933468;7.33152330;2022-08-05T07:10:38;24.70;58.50
9544;DHT22;30418;51.45933468;7.33152330;2022-08-05T07:13:21;24.70;58.50
9544;DHT22;30418;51.45933468;7.33152330;2022-08-05T07:16:26;24.60;58.40
9544;DHT22;30418;51.45933468;7.33152330;2022-08-05T07:19:32;24.60;58.20
9544;DHT22;30418;51.45933468;7.33152330;2022-08-05T07:22:21;24.50;58.00
9544;DHT22;30418;51.45933468;7.33152330;2022-08-05T07:24:57;24.40;57.90
9544;DHT22;30418;51.45933468;7.33152330;2022-08-05T07:27:46;24.30;57.90
9544;DHT22;30418;51.45933468;7.33152330;2022-08-05T07:30:31;24.30;58.10
9544;DHT22;30418;51.45933468;7.33152330;2022-08-05T07:33:06;24.20;58.30
9544;DHT22;30418;51.45933468;7.33152330;2022-08-05T07:35:43;24.10;58.30
9544;DHT22;30418;51.45933468;7.33152330;2022-08-05T07:38:32;24.10;58.40
9544;DHT22;30418;51.45933468;7.33152330;2022-08-05T07:41:13;24.10;58.40
9544;DHT22;30418;51.45933468;7.33152330;2022-08-05T07:44:05;24.00;58.30
9544;DHT22;30418;51.45933468;7.33152330;2022-08-05T07:46:47;24.00;58.30
9544;DHT22;30418;51.45933468;7.33152330;2022-08-05T07:49:16;23.90;58.20
9544;DHT22;30418;51.45933468;7.33152330;2022-08-05T07:51:46;23.80;58.20
9544;DHT22;30418;51.45933468;7.33152330;2022-08-05T07:54:22;23.80;58.40
9544;DHT22;30418;51.45933468;7.33152330;2022-08-05T07:56:59;23.80;58.60
9544;DHT22;30418;51.45933468;7.33152330;2022-08-05T07:59:48;23.80;58.60
9544;DHT22;30418;51.45933468;7.33152330;2022-08-05T08:02:23;23.70;58.60
9544;DHT22;30418;51.45933468;7.33152330;2022-08-05T08:05:12;23.70;58.90
9544;DHT22;30418;51.45933468;7.33152330;2022-08-05T08:07:43;23.70;58.60
9544;DHT22;30418;51.45933468;7.33152330;2022-08-05T08:10:26;23.70;58.60
9544;DHT22;30418;51.45933468;7.33152330;2022-08-05T08:12:56;23.70;58.50
9544;DHT22;30418;51.45933468;7.33152330;2022-08-05T08:15:27;23.70;58.50
9544;DHT22;30418;51.45933468;7.33152330;2022-08-05T08:18:18;23.70;58.50
9544;DHT22;30418;51.45933468;7.33152330;2022-08-05T08:20:47;23.70;58.60
9544;DHT22;30418;51.45933468;7.33152330;2022-08-05T08:23:30;23.70;58.60
9544;DHT22;30418;51.45933468;7.33152330;2022-08-05T08:26:20;23.60;58.60
9544;DHT22;30418;51.45933468;7.33152330;2022-08-05T08:28:57;23.60;58.60
9544;DHT22;30418;51.45933468;7.33152330;2022-08-05T08:31:46;23.60;58.60
9544;DHT22;30418;51.45933468;7.33152330;2022-08-05T08:34:17;23.60;58.60
9544;DHT22;30418;51.45933468;7.33152330;2022-08-05T08:36:59;23.60;58.60
9544;DHT22;30418;51.45933468;7.33152330;2022-08-05T08:39:31;23.60;58.60
9544;DHT22;30418;51.45933468;7.33152330;2022-08-05T08:42:04;23.60;58.60
9544;DHT22;30418;51.45933468;7.33152330;2022-08-05T08:44:55;23.60;58.70
9544;DHT22;30418;51.45933468;7.33152330;2022-08-05T08:47:45;23.60;58.80
9544;DHT22;30418;51.45933468;7.33152330;2022-08-05T08:50:39;23.60;58.70
9544;DHT22;30418;51.45933468;7.33152330;2022-08-05T08:53:33;23.60;59.50
9544;DHT22;30418;51.45933468;7.33152330;2022-08-05T08:56:03;23.60;58.80
9544;DHT22;30418;51.45933468;7.33152330;2022-08-05T08:58:33;23.60;58.70
9544;DHT22;30418;51.45933468;7.33152330;2022-08-05T09:01:14;23.50;58.70
9544;DHT22;30418;51.45933468;7.33152330;2022-08-05T09:03:45;23.60;58.70
9544;DHT22;30418;51.45933468;7.33152330;2022-08-05T09:06:25;23.50;58.50
9544;DHT22;30418;51.45933468;7.33152330;2022-08-05T09:08:58;23.60;58.60
9544;DHT22;30418;51.45933468;7.33152330;2022-08-05T09:11:28;23.50;58.60
9544;DHT22;30418;51.45933468;7.33152330;2022-08-05T09:14:17;23.50;58.60
9544;DHT22;30418;51.45933468;7.33152330;2022-08-05T09:17:08;23.40;58.20
9544;DHT22;30418;51.45933468;7.33152330;2022-08-05T09:19:59;23.40;58.10
9544;DHT22;30418;51.45933468;7.33152330;2022-08-05T09:23:03;23.40;57.80
9544;DHT22;30418;51.45933468;7.33152330;2022-08-05T09:25:49;23.30;58.00
9544;DHT22;30418;51.45933468;7.33152330;2022-08-05T09:28:31;23.30;57.80
9544;DHT22;30418;51.45933468;7.33152330;2022-08-05T09:31:03;23.30;58.10
9544;DHT22;30418;51.45933468;7.33152330;2022-08-05T09:33:54;23.30;58.20
9544;DHT22;30418;51.45933468;7.33152330;2022-08-05T09:36:38;23.30;58.30
9544;DHT22;30418;51.45933468;7.33152330;2022-08-05T09:39:24;23.30;58.60
9544;DHT22;30418;51.45933468;7.33152330;2022-08-05T09:42:14;23.30;58.40
9544;DHT22;30418;51.45933468;7.33152330;2022-08-05T09:44:54;23.30;58.40
9544;DHT22;30418;51.45933468;7.33152330;2022-08-05T09:47:44;23.30;58.40
9544;DHT22;30418;51.45933468;7.33152330;2022-08-05T09:50:33;23.40;58.50
9544;DHT22;30418;51.45933468;7.33152330;2022-08-05T09:53:10;23.40;58.80
9544;DHT22;30418;51.45933468;7.33152330;2022-08-05T09:56:00;23.50;58.40
9544;DHT22;30418;51.45933468;7.33152330;2022-08-05T09:58:37;23.50;58.30
9544;DHT22;30418;51.45933468;7.33152330;2022-08-05T10:01:11;23.50;58.20
9544;DHT22;30418;51.45933468;7.33152330;2022-08-05T10:03:59;23.50;58.40
9544;DHT22;30418;51.45933468;7.33152330;2022-08-05T10:06:37;23.60;58.50
9544;DHT22;30418;51.45933468;7.33152330;2022-08-05T10:09:22;23.50;58.40
9544;DHT22;30418;51.45933468;7.33152330;2022-08-05T10:12:08;23.60;58.20
9544;DHT22;30418;51.45933468;7.33152330;2022-08-05T10:15:17;23.60;58.20
9544;DHT22;30418;51.45933468;7.33152330;2022-08-05T10:18:18;23.60;58.20
9544;DHT22;30418;51.45933468;7.33152330;2022-08-05T10:20:50;23.60;58.40
9544;DHT22;30418;51.45933468;7.33152330;2022-08-05T10:23:23;23.60;58.20
9544;DHT22;30418;51.45933468;7.33152330;2022-08-05T10:26:13;23.60;58.30
9544;DHT22;30418;51.45933468;7.33152330;2022-08-05T10:28:44;23.60;58.50
9544;DHT22;30418;51.45933468;7.33152330;2022-08-05T10:31:15;23.60;58.40
9544;DHT22;30418;51.45933468;7.33152330;2022-08-05T10:34:05;23.60;58.20
9544;DHT22;30418;51.45933468;7.33152330;2022-08-05T10:36:35;23.60;58.20
9544;DHT22;30418;51.45933468;7.33152330;2022-08-05T10:39:09;23.60;58.30
9544;DHT22;30418;51.45933468;7.33152330;2022-08-05T10:41:56;23.60;58.60
9544;DHT22;30418;51.45933468;7.33152330;2022-08-05T10:44:31;23.60;58.60
9544;DHT22;30418;51.45933468;7.33152330;2022-08-05T10:47:09;23.60;58.50
9544;DHT22;30418;51.45933468;7.33152330;2022-08-05T10:49:59;23.60;58.60
9544;DHT22;30418;51.45933468;7.33152330;2022-08-05T10:52:50;23.60;58.50
9544;DHT22;30418;51.45933468;7.33152330;2022-08-05T10:55:25;23.70;58.60
9544;DHT22;30418;51.45933468;7.33152330;2022-08-05T10:58:08;23.70;58.50
9544;DHT22;30418;51.45933468;7.33152330;2022-08-05T11:00:46;23.60;59.00
9544;DHT22;30418;51.45933468;7.33152330;2022-08-05T11:03:29;23.60;58.80
9544;DHT22;30418;51.45933468;7.33152330;2022-08-05T11:06:05;23.70;58.60
9544;DHT22;30418;51.45933468;7.33152330;2022-08-05T11:09:10;23.70;58.60
9544;DHT22;30418;51.45933468;7.33152330;2022-08-05T11:11:43;23.70;58.60
9544;DHT22;30418;51.45933468;7.33152330;2022-08-05T11:14:23;23.70;58.60
9544;DHT22;30418;51.45933468;7.33152330;2022-08-05T11:17:36;23.70;58.60
9544;DHT22;30418;51.45933468;7.33152330;2022-08-05T11:20:41;23.80;58.80
9544;DHT22;30418;51.45933468;7.33152330;2022-08-05T11:23:34;23.90;58.90
9544;DHT22;30418;51.45933468;7.33152330;2022-08-05T11:26:24;23.90;58.10
9544;DHT22;30418;51.45933468;7.33152330;2022-08-05T11:28:57;24.00;57.90
9544;DHT22;30418;51.45933468;7.33152330;2022-08-05T11:31:43;24.00;58.00
9544;DHT22;30418;51.45933468;7.33152330;2022-08-05T11:34:38;24.10;58.00
9544;DHT22;30418;51.45933468;7.33152330;2022-08-05T11:40:57;24.20;57.50
9544;DHT22;30418;51.45933468;7.33152330;2022-08-05T11:43:54;24.30;57.60
9544;DHT22;30418;51.45933468;7.33152330;2022-08-05T11:46:35;24.30;57.10
9544;DHT22;30418;51.45933468;7.33152330;2022-08-05T11:49:24;24.30;57.10
9544;DHT22;30418;51.45933468;7.33152330;2022-08-05T11:51:55;24.40;57.20
9544;DHT22;30418;51.45933468;7.33152330;2022-08-05T11:54:25;24.40;57.20
9544;DHT22;30418;51.45933468;7.33152330;2022-08-05T11:57:01;24.40;56.90
9544;DHT22;30418;51.45933468;7.33152330;2022-08-05T11:59:50;24.50;57.10
9544;DHT22;30418;51.45933468;7.33152330;2022-08-05T12:02:24;24.60;57.30
9544;DHT22;30418;51.45933468;7.33152330;2022-08-05T12:05:00;24.70;57.20
9544;DHT22;30418;51.45933468;7.33152330;2022-08-05T12:07:36;24.80;57.30
9544;DHT22;30418;51.45933468;7.33152330;2022-08-05T12:10:26;24.90;57.00
9544;DHT22;30418;51.45933468;7.33152330;2022-08-05T12:13:13;25.00;56.90
9544;DHT22;30418;51.45933468;7.33152330;2022-08-05T12:16:04;25.00;56.60
9544;DHT22;30418;51.45933468;7.33152330;2022-08-05T12:18:43;25.10;56.60
9544;DHT22;30418;51.45933468;7.33152330;2022-08-05T12:21:22;25.10;56.40
9544;DHT22;30418;51.45933468;7.33152330;2022-08-05T12:24:01;25.20;56.00
9544;DHT22;30418;51.45933468;7.33152330;2022-08-05T12:26:34;25.10;55.80
9544;DHT22;30418;51.45933468;7.33152330;2022-08-05T12:29:05;25.10;56.00
9544;DHT22;30418;51.45933468;7.33152330;2022-08-05T12:31:38;25.20;56.00
9544;DHT22;30418;51.45933468;7.33152330;2022-08-05T12:34:23;25.20;56.10
9544;DHT22;30418;51.45933468;7.33152330;2022-08-05T12:36:55;25.20;56.00
9544;DHT22;30418;51.45933468;7.33152330;2022-08-05T12:39:27;25.30;56.40
9544;DHT22;30418;51.45933468;7.33152330;2022-08-05T12:42:09;25.40;56.10
9544;DHT22;30418;51.45933468;7.33152330;2022-08-05T12:44:41;25.40;55.90
9544;DHT22;30418;51.45933468;7.33152330;2022-08-05T12:47:24;25.50;55.90
9544;DHT22;30418;51.45933468;7.33152330;2022-08-05T12:49:56;25.50;55.60
9544;DHT22;30418;51.45933468;7.33152330;2022-08-05T12:52:33;25.50;55.40
9544;DHT22;30418;51.45933468;7.33152330;2022-08-05T12:55:20;25.50;55.20
9544;DHT22;30418;51.45933468;7.33152330;2022-08-05T12:57:52;25.60;55.00
9544;DHT22;30418;51.45933468;7.33152330;2022-08-05T13:00:43;25.60;55.00
9544;DHT22;30418;51.45933468;7.33152330;2022-08-05T13:03:34;25.60;55.00
9544;DHT22;30418;51.45933468;7.33152330;2022-08-05T13:06:06;25.60;54.90
9544;DHT22;30418;51.45933468;7.33152330;2022-08-05T13:08:37;25.60;54.80
9544;DHT22;30418;51.45933468;7.33152330;2022-08-05T13:11:19;25.60;55.10
9544;DHT22;30418;51.45933468;7.33152330;2022-08-05T13:14:16;25.60;55.30
9544;DHT22;30418;51.45933468;7.33152330;2022-08-05T13:17:06;25.60;54.50
9544;DHT22;30418;51.45933468;7.33152330;2022-08-05T13:19:37;25.70;54.60
9544;DHT22;30418;51.45933468;7.33152330;2022-08-05T13:22:19;25.60;54.50
9544;DHT22;30418;51.45933468;7.33152330;2022-08-05T13:24:56;25.60;54.40
9544;DHT22;30418;51.45933468;7.33152330;2022-08-05T13:27:34;25.60;54.20
9544;DHT22;30418;51.45933468;7.33152330;2022-08-05T13:30:07;25.60;53.90
9544;DHT22;30418;51.45933468;7.33152330;2022-08-05T13:32:57;25.50;53.70
9544;DHT22;30418;51.45933468;7.33152330;2022-08-05T13:35:28;25.50;53.60
9544;DHT22;30418;51.45933468;7.33152330;2022-08-05T13:38:13;25.40;53.50
9544;DHT22;30418;51.45933468;7.33152330;2022-08-05T13:40:57;25.40;53.80
9544;DHT22;30418;51.45933468;7.33152330;2022-08-05T13:43:27;25.40;53.80
9544;DHT22;30418;51.45933468;7.33152330;2022-08-05T13:46:16;25.40;54.30
9544;DHT22;30418;51.45933468;7.33152330;2022-08-05T13:49:05;25.50;54.20
9544;DHT22;30418;51.45933468;7.33152330;2022-08-05T13:51:38;25.50;54.40
9544;DHT22;30418;51.45933468;7.33152330;2022-08-05T13:54:14;25.60;54.50
9544;DHT22;30418;51.45933468;7.33152330;2022-08-05T13:56:51;25.70;54.50
9544;DHT22;30418;51.45933468;7.33152330;2022-08-05T13:59:22;25.80;54.20
9544;DHT22;30418;51.45933468;7.33152330;2022-08-05T14:01:53;25.90;53.80
9544;DHT22;30418;51.45933468;7.33152330;2022-08-05T14:04:26;25.90;53.70
9544;DHT22;30418;51.45933468;7.33152330;2022-08-05T14:07:18;25.90;53.70
9544;DHT22;30418;51.45933468;7.33152330;2022-08-05T14:10:09;25.90;53.50
9544;DHT22;30418;51.45933468;7.33152330;2022-08-05T14:12:38;25.90;53.70
9544;DHT22;30418;51.45933468;7.33152330;2022-08-05T14:15:16;25.90;53.20
9544;DHT22;30418;51.45933468;7.33152330;2022-08-05T14:18:05;25.90;53.10
9544;DHT22;30418;51.45933468;7.33152330;2022-08-05T14:20:45;25.90;52.80
9544;DHT22;30418;51.45933468;7.33152330;2022-08-05T14:23:14;25.80;52.80
9544;DHT22;30418;51.45933468;7.33152330;2022-08-05T14:25:51;25.70;52.70
9544;DHT22;30418;51.45933468;7.33152330;2022-08-05T14:28:25;25.60;52.30
9544;DHT22;30418;51.45933468;7.33152330;2022-08-05T14:30:56;25.60;52.40
9544;DHT22;30418;51.45933468;7.33152330;2022-08-05T14:33:25;25.50;52.40
9544;DHT22;30418;51.45933468;7.33152330;2022-08-05T14:36:13;25.40;52.50
9544;DHT22;30418;51.45933468;7.33152330;2022-08-05T14:38:47;25.40;52.50
9544;DHT22;30418;51.45933468;7.33152330;2022-08-05T14:41:16;25.30;52.40
9544;DHT22;30418;51.45933468;7.33152330;2022-08-05T14:43:45;25.30;52.50